createdAt,value
2023-02-14T00:00:58.187Z,3.90
2023-02-14T00:03:25.261Z,3.90
2023-02-14T00:05:52.133Z,3.90
2023-02-14T00:08:19.287Z,3.90
2023-02-14T00:10:46.553Z,3.90
2023-02-14T00:13:13.407Z,3.80
2023-02-14T00:15:40.458Z,3.80
2023-02-14T00:18:07.573Z,3.80
2023-02-14T00:20:34.696Z,3.80
2023-02-14T00:23:01.598Z,3.70
2023-02-14T00:25:28.576Z,3.70
2023-02-14T00:27:57.047Z,3.60
2023-02-14T00:30:25.118Z,3.60
2023-02-14T00:32:57.410Z,3.60
2023-02-14T00:35:25.219Z,3.50
2023-02-14T00:41:19.384Z,3.50
2023-02-14T00:43:51.542Z,3.50
2023-02-14T00:46:20.184Z,3.50
2023-02-14T00:48:47.711Z,3.40
2023-02-14T00:51:15.497Z,3.40
2023-02-14T00:53:42.591Z,3.30
2023-02-14T00:56:09.746Z,3.30
2023-02-14T00:58:36.830Z,3.30
2023-02-14T01:01:06.960Z,3.30
2023-02-14T01:03:36.208Z,3.20
2023-02-14T01:06:05.936Z,3.20
2023-02-14T01:08:33.583Z,3.20
2023-02-14T01:11:10.756Z,3.10
2023-02-14T01:13:38.041Z,3.20
2023-02-14T01:16:10.115Z,3.10
2023-02-14T01:18:37.346Z,3.10
2023-02-14T01:24:13.972Z,3.00
2023-02-14T01:29:25.405Z,2.90
2023-02-14T01:31:52.495Z,2.80
2023-02-14T01:34:19.511Z,2.80
2023-02-14T01:36:46.647Z,2.70
2023-02-14T01:39:15.184Z,2.70
2023-02-14T01:41:44.620Z,2.60
2023-02-14T01:44:14.515Z,2.60
2023-02-14T01:46:43.230Z,2.60
2023-02-14T01:49:26.177Z,2.60
2023-02-14T01:52:04.263Z,2.50
2023-02-14T01:54:33.761Z,2.50
2023-02-14T01:57:04.876Z,2.50
2023-02-14T01:59:38.281Z,2.50
2023-02-14T02:02:06.178Z,2.40
2023-02-14T02:04:37.134Z,2.40
2023-02-14T02:07:07.743Z,2.40
2023-02-14T02:10:00.320Z,2.30
2023-02-14T02:12:30.525Z,2.20
2023-02-14T02:14:58.968Z,2.20
2023-02-14T02:17:46.447Z,2.20
2023-02-14T02:20:36.176Z,2.20
2023-02-14T02:23:37.649Z,2.30
2023-02-14T02:26:31.969Z,2.20
2023-02-14T02:29:20.280Z,2.20
2023-02-14T02:32:25.311Z,2.20
2023-02-14T02:35:01.471Z,2.20
2023-02-14T02:38:04.277Z,2.10
2023-02-14T02:40:46.790Z,2.10
2023-02-14T02:43:32.121Z,2.10
2023-02-14T02:46:23.587Z,2.10
2023-02-14T02:49:02.181Z,2.10
2023-02-14T02:51:57.652Z,2.00
2023-02-14T02:54:36.156Z,2.00
2023-02-14T02:57:10.202Z,2.00
2023-02-14T02:59:43.837Z,2.00
2023-02-14T03:02:15.305Z,1.90
2023-02-14T03:04:57.786Z,1.90
2023-02-14T03:07:39.855Z,1.90
2023-02-14T03:10:25.221Z,1.90
2023-02-14T03:13:04.310Z,1.80
2023-02-14T03:16:05.418Z,1.80
2023-02-14T03:18:35.378Z,1.80
2023-02-14T03:21:17.143Z,1.80
2023-02-14T03:24:08.401Z,1.80
2023-02-14T03:26:43.123Z,1.80
2023-02-14T03:29:26.287Z,1.70
2023-02-14T03:32:00.710Z,1.70
2023-02-14T03:34:45.548Z,1.60
2023-02-14T03:37:21.938Z,1.60
2023-02-14T03:39:55.160Z,1.60
2023-02-14T03:42:28.499Z,1.60
2023-02-14T03:44:56.763Z,1.60
2023-02-14T03:47:27.509Z,1.50
2023-02-14T03:49:59.657Z,1.50
2023-02-14T03:52:28.747Z,1.50
2023-02-14T03:54:58.480Z,1.50
2023-02-14T03:57:47.811Z,1.50
2023-02-14T04:00:15.719Z,1.50
2023-02-14T04:02:48.188Z,1.50
2023-02-14T04:05:23.245Z,1.40
2023-02-14T04:07:55.656Z,1.40
2023-02-14T04:10:23.544Z,1.40
2023-02-14T04:12:51.113Z,1.40
2023-02-14T04:15:18.672Z,1.30
2023-02-14T04:18:04.187Z,1.30
2023-02-14T04:20:31.297Z,1.30
2023-02-14T04:22:58.332Z,1.30
2023-02-14T04:25:26.018Z,1.30
2023-02-14T04:27:53.361Z,1.30
2023-02-14T04:30:22.807Z,1.30
2023-02-14T04:32:50.013Z,1.20
2023-02-14T04:35:17.570Z,1.20
2023-02-14T04:37:45.626Z,1.20
2023-02-14T04:40:16.791Z,1.20
2023-02-14T04:42:45.465Z,1.10
2023-02-14T04:45:13.244Z,1.10
2023-02-14T04:47:40.600Z,1.10
2023-02-14T04:50:08.354Z,1.10
2023-02-14T04:52:37.492Z,1.20
2023-02-14T04:55:09.718Z,1.20
2023-02-14T04:57:36.706Z,1.20
2023-02-14T05:00:08.297Z,1.30
2023-02-14T05:02:35.927Z,1.30
2023-02-14T05:05:03.557Z,1.30
2023-02-14T05:07:30.692Z,1.30
2023-02-14T05:09:57.671Z,1.40
2023-02-14T05:12:26.704Z,1.50
2023-02-14T05:14:57.607Z,1.50
2023-02-14T05:17:24.911Z,1.60
2023-02-14T05:19:52.058Z,1.60
2023-02-14T05:22:23.357Z,1.60
2023-02-14T05:24:50.334Z,1.70
2023-02-14T05:27:17.235Z,1.70
2023-02-14T05:29:44.184Z,1.70
2023-02-14T05:32:11.221Z,1.70
2023-02-14T05:34:42.595Z,1.70
2023-02-14T05:37:09.582Z,1.70
2023-02-14T05:39:36.459Z,1.80
2023-02-14T05:42:03.507Z,1.80
2023-02-14T05:44:30.391Z,1.90
2023-02-14T05:47:05.172Z,2.00
2023-02-14T05:49:32.136Z,2.00
2023-02-14T05:51:59.185Z,2.10
2023-02-14T05:54:26.126Z,2.10
2023-02-14T05:56:53.090Z,2.20
2023-02-14T05:59:20.100Z,2.30
2023-02-14T06:01:47.098Z,2.30
2023-02-14T06:04:14.060Z,2.40
2023-02-14T06:06:41.041Z,2.40
2023-02-14T06:09:07.892Z,2.40
2023-02-14T06:11:34.913Z,2.40
2023-02-14T06:14:01.824Z,2.40
2023-02-14T06:16:38.328Z,2.40
2023-02-14T06:19:05.143Z,2.50
2023-02-14T06:21:32.114Z,2.50
2023-02-14T06:24:02.809Z,2.50
2023-02-14T06:26:29.744Z,2.50
2023-02-14T06:28:58.702Z,2.50
2023-02-14T06:31:26.265Z,2.50
2023-02-14T06:33:54.396Z,2.60
2023-02-14T06:36:23.461Z,2.60
2023-02-14T06:38:50.886Z,2.50
2023-02-14T06:41:18.125Z,2.60
2023-02-14T06:43:45.965Z,2.60
2023-02-14T06:46:13.604Z,2.60
2023-02-14T06:48:40.717Z,2.70
2023-02-14T06:51:08.026Z,2.60
2023-02-14T06:53:35.205Z,2.60
2023-02-14T06:56:07.465Z,2.70
2023-02-14T06:58:34.831Z,2.60
2023-02-14T07:01:02.112Z,2.60
2023-02-14T07:03:29.257Z,2.50
2023-02-14T07:05:58.003Z,2.50
2023-02-14T07:08:26.516Z,2.50
2023-02-14T07:10:58.029Z,2.40
2023-02-14T07:13:25.748Z,2.40
2023-02-14T07:15:52.668Z,2.40
2023-02-14T07:18:22.647Z,2.40
2023-02-14T07:20:51.424Z,2.40
2023-02-14T07:23:18.790Z,2.30
2023-02-14T07:25:46.032Z,2.20
2023-02-14T07:28:12.946Z,2.20
2023-02-14T07:30:39.926Z,2.20
2023-02-14T07:33:06.978Z,2.10
2023-02-14T07:35:35.247Z,2.10
2023-02-14T07:38:02.270Z,2.20
2023-02-14T07:40:30.098Z,2.10
2023-02-14T07:42:58.479Z,2.10
2023-02-14T07:45:25.696Z,2.00
2023-02-14T07:47:55.225Z,2.00
2023-02-14T07:50:23.441Z,2.10
2023-02-14T07:52:50.718Z,2.10
2023-02-14T07:55:19.403Z,2.10
2023-02-14T07:57:48.586Z,2.10
2023-02-14T08:00:16.108Z,2.10
2023-02-14T08:02:43.036Z,2.00
2023-02-14T08:05:10.639Z,2.00
2023-02-14T08:07:37.636Z,2.00
2023-02-14T08:10:05.198Z,2.00
2023-02-14T08:12:50.658Z,2.10
2023-02-14T08:15:36.526Z,2.20
2023-02-14T08:18:03.755Z,2.20
2023-02-14T08:20:30.886Z,2.10
2023-02-14T08:22:58.054Z,2.20
2023-02-14T08:25:24.912Z,2.10
2023-02-14T08:27:51.791Z,2.10
2023-02-14T08:30:19.031Z,2.10
2023-02-14T08:32:46.146Z,2.20
2023-02-14T08:35:13.585Z,2.20
2023-02-14T08:37:40.488Z,2.30
2023-02-14T08:40:08.200Z,2.30
2023-02-14T08:42:35.156Z,2.30
2023-02-14T08:45:02.120Z,2.30
2023-02-14T08:47:28.942Z,2.30
2023-02-14T08:49:55.814Z,2.30
2023-02-14T08:52:22.709Z,2.40
2023-02-14T08:54:49.548Z,2.30
2023-02-14T08:57:16.383Z,2.30
2023-02-14T08:59:43.589Z,2.40
2023-02-14T09:02:13.809Z,2.50
2023-02-14T09:04:40.847Z,2.50
2023-02-14T09:07:08.134Z,2.60
2023-02-14T09:09:35.025Z,2.50
2023-02-14T09:12:07.028Z,2.50
2023-02-14T09:14:44.082Z,2.50
2023-02-14T09:17:15.144Z,2.60
2023-02-14T09:19:42.666Z,2.50
2023-02-14T09:22:11.091Z,2.60
2023-02-14T09:24:39.706Z,2.70
2023-02-14T09:27:07.522Z,2.70
2023-02-14T09:29:34.484Z,2.80
2023-02-14T09:32:02.345Z,2.80
2023-02-14T09:34:48.416Z,2.90
2023-02-14T09:37:15.660Z,3.00
2023-02-14T09:39:42.626Z,3.00
2023-02-14T09:42:31.149Z,3.10
2023-02-14T09:44:59.850Z,3.20
2023-02-14T09:47:49.627Z,3.30
2023-02-14T09:50:28.050Z,3.30
2023-02-14T09:53:03.208Z,3.30
2023-02-14T09:55:40.029Z,3.40
2023-02-14T09:58:16.062Z,3.50
2023-02-14T10:00:52.142Z,3.50
2023-02-14T10:03:53.095Z,3.50
2023-02-14T10:06:45.104Z,3.50
2023-02-14T10:09:30.244Z,3.60
2023-02-14T10:11:59.961Z,3.70
2023-02-14T10:18:17.621Z,3.80
2023-02-14T10:21:03.393Z,3.90
2023-02-14T10:23:38.131Z,4.00
2023-02-14T10:26:06.458Z,4.00
2023-02-14T10:28:36.243Z,4.10
2023-02-14T10:31:21.335Z,4.20
2023-02-14T10:34:12.112Z,4.30
2023-02-14T10:36:42.032Z,4.40
2023-02-14T10:39:30.123Z,4.30
2023-02-14T10:42:00.214Z,4.20
2023-02-14T10:44:45.637Z,4.20
2023-02-14T10:47:54.150Z,4.30
2023-02-14T10:50:52.726Z,4.30
2023-02-14T10:53:26.346Z,4.20
2023-02-14T10:56:00.145Z,4.10
2023-02-14T10:58:30.775Z,4.20
2023-02-14T11:01:13.444Z,4.30
2023-02-14T11:03:47.934Z,4.30
2023-02-14T11:06:16.216Z,4.20
2023-02-14T11:08:43.119Z,4.20
2023-02-14T11:11:18.642Z,4.30
2023-02-14T11:13:46.358Z,4.30
2023-02-14T11:16:28.117Z,4.30
2023-02-14T11:19:14.710Z,4.20
2023-02-14T11:21:46.983Z,4.20
2023-02-14T11:24:38.172Z,4.30
2023-02-14T11:27:11.638Z,4.40
2023-02-14T11:29:41.549Z,4.40
2023-02-14T11:32:14.684Z,4.50
2023-02-14T11:34:48.197Z,4.70
2023-02-14T11:37:32.447Z,4.60
2023-02-14T11:40:01.438Z,4.40
2023-02-14T11:42:43.040Z,4.50
2023-02-14T11:45:36.101Z,4.50
2023-02-14T11:48:36.565Z,4.60
2023-02-14T11:51:11.299Z,4.70
2023-02-14T11:53:45.933Z,4.50
2023-02-14T11:56:14.087Z,4.40
2023-02-14T11:58:51.088Z,4.30
2023-02-14T12:01:32.277Z,4.20
2023-02-14T12:04:17.891Z,4.20
2023-02-14T12:06:45.906Z,4.30
2023-02-14T12:09:16.570Z,4.30
2023-02-14T12:12:01.812Z,4.40
2023-02-14T12:14:32.072Z,4.30
2023-02-14T12:17:03.264Z,4.20
2023-02-14T12:19:40.885Z,4.30
2023-02-14T12:22:13.046Z,4.30
2023-02-14T12:25:00.162Z,4.40
2023-02-14T12:27:27.338Z,4.30
2023-02-14T12:29:54.384Z,4.30
2023-02-14T12:32:25.336Z,4.30
2023-02-14T12:35:03.182Z,4.40
2023-02-14T12:38:04.586Z,4.50
2023-02-14T12:41:07.147Z,4.70
2023-02-14T12:43:56.357Z,4.60
2023-02-14T13:07:08.873Z,4.70
2023-02-14T13:34:46.534Z,4.50
2023-02-14T13:37:18.653Z,4.60
2023-02-14T13:40:08.481Z,4.60
2023-02-14T13:42:50.488Z,4.50
2023-02-14T13:45:32.952Z,4.60
2023-02-14T13:48:31.813Z,4.60
2023-02-14T13:51:07.551Z,4.60
2023-02-14T13:53:46.497Z,4.70
2023-02-14T13:56:13.507Z,4.70
2023-02-14T13:58:54.305Z,4.80
2023-02-14T14:01:50.299Z,4.80
2023-02-14T14:04:30.373Z,4.80
2023-02-14T14:07:03.317Z,4.80
2023-02-14T14:09:42.219Z,4.80
2023-02-14T14:12:27.709Z,4.90
2023-02-14T14:15:06.974Z,4.90
2023-02-14T14:17:39.777Z,4.90
2023-02-14T14:20:21.897Z,4.80
2023-02-14T14:22:50.141Z,4.80
2023-02-14T14:25:39.601Z,4.80
2023-02-14T14:28:19.542Z,4.70
2023-02-14T14:30:47.267Z,4.70
2023-02-14T14:33:31.294Z,4.70
2023-02-14T14:36:00.225Z,4.60
2023-02-14T14:38:28.840Z,4.60
2023-02-14T14:40:56.081Z,4.70
2023-02-14T14:43:30.256Z,4.80
2023-02-14T14:45:59.892Z,4.90
2023-02-14T14:48:30.964Z,4.80
2023-02-14T14:50:59.232Z,4.90
2023-02-14T14:53:37.172Z,4.90
2023-02-14T14:56:04.343Z,5.00
2023-02-14T14:58:33.983Z,5.10
2023-02-14T15:01:00.939Z,4.90
2023-02-14T15:03:29.342Z,4.80
2023-02-14T15:06:14.276Z,4.60
2023-02-14T15:08:41.598Z,4.50
2023-02-14T15:11:46.462Z,4.60
2023-02-14T15:14:21.518Z,4.70
2023-02-14T15:16:52.066Z,4.70
2023-02-14T15:19:31.077Z,4.80
2023-02-14T15:21:58.184Z,4.70
2023-02-14T15:24:26.856Z,4.70
2023-02-14T15:26:54.137Z,4.60
2023-02-14T15:29:26.355Z,4.50
2023-02-14T15:31:54.066Z,4.50
2023-02-14T15:34:24.979Z,4.70
2023-02-14T15:36:59.251Z,4.80
2023-02-14T15:39:35.380Z,4.70
2023-02-14T15:42:02.441Z,4.70
2023-02-14T15:44:29.392Z,4.60
2023-02-14T15:46:58.917Z,4.60
2023-02-14T15:49:35.683Z,4.60
2023-02-14T15:52:05.692Z,4.70
2023-02-14T15:54:44.906Z,4.70
2023-02-14T15:57:26.264Z,4.70
2023-02-14T15:59:54.161Z,4.60
2023-02-14T16:02:27.469Z,4.60
2023-02-14T16:04:54.590Z,4.60
2023-02-14T16:07:21.476Z,4.60
2023-02-14T16:10:12.424Z,4.60
2023-02-14T16:12:41.496Z,4.60
2023-02-14T16:15:21.615Z,4.40
2023-02-14T16:17:48.918Z,4.40
2023-02-14T16:20:21.224Z,4.30
2023-02-14T16:22:48.207Z,4.20
2023-02-14T16:25:16.299Z,4.30
2023-02-14T16:27:43.205Z,4.20
2023-02-14T16:30:19.945Z,4.10
2023-02-14T16:32:51.512Z,4.10
2023-02-14T16:35:21.339Z,4.10
2023-02-14T16:37:50.635Z,4.10
2023-02-14T16:40:20.095Z,4.10
2023-02-14T16:42:47.034Z,4.00
2023-02-14T16:45:18.032Z,4.10
2023-02-14T16:47:48.881Z,4.10
2023-02-14T16:50:16.467Z,4.00
2023-02-14T16:52:51.934Z,3.90
2023-02-14T16:55:20.197Z,3.80
2023-02-14T16:57:50.720Z,3.80
2023-02-14T17:00:17.850Z,3.80
2023-02-14T17:02:45.044Z,3.70
2023-02-14T17:05:12.418Z,3.70
2023-02-14T17:07:42.654Z,3.60
2023-02-14T17:10:14.889Z,3.60
2023-02-14T17:12:45.762Z,3.50
2023-02-14T17:15:21.550Z,3.50
2023-02-14T17:17:50.315Z,3.50
2023-02-14T17:20:19.960Z,3.50
2023-02-14T17:22:46.890Z,3.40
2023-02-14T17:25:14.218Z,3.50
2023-02-14T17:27:44.017Z,3.50
2023-02-14T17:30:12.577Z,3.50
2023-02-14T17:32:39.467Z,3.50
2023-02-14T17:35:08.834Z,3.50
2023-02-14T17:37:38.616Z,3.50
2023-02-14T17:40:06.146Z,3.50
2023-02-14T17:42:33.729Z,3.40
2023-02-14T17:45:01.080Z,3.40
2023-02-14T17:47:29.335Z,3.40
2023-02-14T17:49:57.237Z,3.40
2023-02-14T17:52:25.200Z,3.50
2023-02-14T17:54:52.061Z,3.40
2023-02-14T17:57:19.175Z,3.40
2023-02-14T17:59:46.884Z,3.50
2023-02-14T18:02:14.030Z,3.50
2023-02-14T18:04:40.850Z,3.50
2023-02-14T18:07:08.226Z,3.50
2023-02-14T18:09:35.157Z,3.50
2023-02-14T18:12:02.532Z,3.50
2023-02-14T18:14:29.416Z,3.40
2023-02-14T18:16:56.326Z,3.50
2023-02-14T18:19:23.321Z,3.40
2023-02-14T18:21:50.246Z,3.30
2023-02-14T18:24:17.250Z,3.20
2023-02-14T18:26:44.678Z,3.30
2023-02-14T18:29:12.782Z,3.30
2023-02-14T18:31:42.148Z,3.30
2023-02-14T18:34:09.535Z,3.30
2023-02-14T18:36:38.769Z,3.30
2023-02-14T18:39:06.106Z,3.20
2023-02-14T18:41:33.564Z,3.30
2023-02-14T18:44:01.651Z,3.30
2023-02-14T18:46:31.596Z,3.30
2023-02-14T18:48:59.278Z,3.30
2023-02-14T18:51:32.495Z,3.30
2023-02-14T18:54:04.608Z,3.40
2023-02-14T18:56:34.259Z,3.40
2023-02-14T18:59:08.014Z,3.30
2023-02-14T19:01:38.059Z,3.30
2023-02-14T19:04:08.157Z,3.30
2023-02-14T19:06:36.001Z,3.30
2023-02-14T19:09:07.170Z,3.30
2023-02-14T19:11:34.241Z,3.20
2023-02-14T19:14:02.738Z,3.30
2023-02-14T19:16:33.544Z,3.30
2023-02-14T19:19:02.827Z,3.20
2023-02-14T19:21:33.610Z,3.30
2023-02-14T19:24:02.559Z,3.30
2023-02-14T19:26:37.176Z,3.30
2023-02-14T19:29:07.474Z,3.40
2023-02-14T19:31:37.537Z,3.40
2023-02-14T19:34:06.682Z,3.40
2023-02-14T19:36:37.456Z,3.40
2023-02-14T19:39:04.716Z,3.40
2023-02-14T19:41:34.628Z,3.50
2023-02-14T19:44:04.576Z,3.40
2023-02-14T19:46:32.312Z,3.30
2023-02-14T19:49:00.297Z,3.30
2023-02-14T19:51:33.078Z,3.40
2023-02-14T19:54:02.194Z,3.30
2023-02-14T19:56:31.938Z,3.20
2023-02-14T19:58:59.890Z,3.20
2023-02-14T20:01:36.361Z,3.20
2023-02-14T20:04:03.711Z,3.20
2023-02-14T20:06:30.991Z,3.30
2023-02-14T20:08:58.054Z,3.30
2023-02-14T20:11:35.894Z,3.40
2023-02-14T20:14:04.869Z,3.40
2023-02-14T20:16:34.176Z,3.40
2023-02-14T20:19:02.796Z,3.40
2023-02-14T20:21:29.924Z,3.50
2023-02-14T20:24:03.786Z,3.50
2023-02-14T20:26:32.098Z,3.60
2023-02-14T20:29:00.843Z,3.50
2023-02-14T20:31:27.825Z,3.50
2023-02-14T20:33:55.680Z,3.50
2023-02-14T20:36:22.730Z,3.50
2023-02-14T20:38:58.322Z,3.40
2023-02-14T20:41:26.442Z,3.40
2023-02-14T20:43:54.443Z,3.50
2023-02-14T20:46:22.808Z,3.40
2023-02-14T20:48:51.037Z,3.40
2023-02-14T20:51:20.690Z,3.40
2023-02-14T20:53:48.060Z,3.40
2023-02-14T20:56:16.071Z,3.40
2023-02-14T20:58:43.482Z,3.50
2023-02-14T21:01:13.438Z,3.50
2023-02-14T21:03:41.891Z,3.50
2023-02-14T21:06:11.710Z,3.50
2023-02-14T21:08:39.429Z,3.50
2023-02-14T21:11:07.567Z,3.40
2023-02-14T21:13:34.608Z,3.50
2023-02-14T21:16:03.831Z,3.40
2023-02-14T21:18:30.917Z,3.50
2023-02-14T21:21:18.001Z,3.40
2023-02-14T21:23:44.917Z,3.40
2023-02-14T21:26:12.113Z,3.50
2023-02-14T21:28:39.250Z,3.40
2023-02-14T21:31:08.511Z,3.40
2023-02-14T21:33:36.533Z,3.50
2023-02-14T21:36:14.611Z,3.50
2023-02-14T21:38:42.091Z,3.60
2023-02-14T21:41:12.095Z,3.70
2023-02-14T21:43:41.638Z,3.70
2023-02-14T21:46:14.485Z,3.70
2023-02-14T21:49:00.492Z,3.70
2023-02-14T21:51:28.308Z,3.60
2023-02-14T21:53:55.921Z,3.70
2023-02-14T21:56:23.929Z,3.60
2023-02-14T21:58:52.868Z,3.60
2023-02-14T22:01:26.508Z,3.60
2023-02-14T22:03:54.575Z,3.60
2023-02-14T22:06:21.982Z,3.60
2023-02-14T22:08:57.016Z,3.60
2023-02-14T22:11:25.390Z,3.60
2023-02-14T22:13:52.494Z,3.60
2023-02-14T22:16:21.327Z,3.60
2023-02-14T22:18:48.273Z,3.50
2023-02-14T22:21:18.340Z,3.50
2023-02-14T22:23:45.281Z,3.50
2023-02-14T22:26:16.940Z,3.50
2023-02-14T22:28:46.179Z,3.40
2023-02-14T22:31:14.733Z,3.50
2023-02-14T22:33:41.953Z,3.50
2023-02-14T22:36:09.671Z,3.50
2023-02-14T22:38:37.094Z,3.50
2023-02-14T22:41:09.599Z,3.50
2023-02-14T22:43:37.725Z,3.40
2023-02-14T23:06:39.654Z,3.40
2023-02-14T23:09:08.366Z,3.30
2023-02-14T23:11:37.491Z,3.30
2023-02-14T23:14:23.762Z,3.20
2023-02-14T23:17:09.448Z,3.30
2023-02-14T23:19:56.463Z,3.30
2023-02-14T23:22:24.766Z,3.30
2023-02-14T23:24:53.775Z,3.20
2023-02-14T23:27:31.540Z,3.20
2023-02-14T23:29:58.361Z,3.10
2023-02-14T23:32:25.526Z,3.10
2023-02-14T23:34:52.530Z,3.20
2023-02-14T23:37:19.877Z,3.20
2023-02-14T23:39:46.863Z,3.10
2023-02-14T23:42:14.988Z,3.10
2023-02-14T23:44:46.231Z,3.20
2023-02-14T23:47:14.289Z,3.10
2023-02-14T23:49:41.974Z,3.10
2023-02-14T23:52:11.785Z,3.10
2023-02-14T23:54:39.587Z,3.10
2023-02-14T23:57:07.566Z,3.10
2023-02-14T23:59:34.849Z,3.00
